Steyning, United Kingdom
Current Conditions -  °F | °C
As of 4:20 PM on Saturday 22 Nov 2014 (Local Time) from EGKA Reporting Station
Drizzle Drizzle  
Wind Chill: 57°   Ceiling: 900
Heat Index: 57°   Visibility: 1.3mi
Dew Point: 55°   Wind: 3mph
Humidity: 94%   Direction: 140°SE
Pressure: 29.94"   Gusts: NA
Location:  50.89°N, 0.33°W
Report Text: EGKA 221620Z 14003KT 2200 -DZ BR FEW004 SCT006 OVC009 14/13 Q1014
Loading
Personal Weather Stations






























Interactive Weather Map New forecast layout! Learn more

10-Day Weather Forecast

Advertisements
Track Severe Weather on mobile